Terminal Aerodrome Forecast
Issued by NWS Wilmington, NC

Home | Current Version | Previous Version | Text Only | Print | Product List | Glossary On
Versions: 1 2 3 4 5 6 7 8 9 10 11 12 13 14
000
FTUS42 KILM 212300
TAFFLO
TAF
KFLO 212322Z 2200/2224 06008KT P6SM BKN035 OVC070
     FM220400 04009KT 6SM -RA BR SCT010 BKN020
     FM220800 03010KT 4SM -RA BR SCT004 BKN008 OVC012
     FM221500 02008KT P6SM OVC008=

USA.gov is the U.S. government's official web portal to all federal, state and local government web resources and services.